createdAt,value
2022-10-13T00:00:46.112Z,101047.94
2022-10-13T00:03:12.967Z,101061.69
2022-10-13T00:05:44.530Z,101066.91
2022-10-13T00:08:12.735Z,101034.66
2022-10-13T00:10:40.769Z,101058.81
2022-10-13T00:13:08.814Z,101026.66
2022-10-13T00:15:46.142Z,101049.72
2022-10-13T00:18:13.558Z,101042.91
2022-10-13T00:20:49.406Z,101048.88
2022-10-13T00:23:17.097Z,101048.78
2022-10-13T00:25:45.931Z,101022.75
2022-10-13T00:28:14.140Z,101023.56
2022-10-13T00:30:41.592Z,101046.94
2022-10-13T00:33:09.996Z,101042.59
2022-10-13T00:35:46.168Z,100983.88
2022-10-13T00:38:13.691Z,101036.63
2022-10-13T00:40:47.980Z,101001.38
2022-10-13T00:43:26.968Z,101041.50
2022-10-13T00:45:54.421Z,101025.38
2022-10-13T00:48:24.912Z,101026.44
2022-10-13T00:50:52.468Z,100973.81
2022-10-13T00:53:23.244Z,100991.97
2022-10-13T00:55:52.664Z,101029.13
2022-10-13T00:58:24.028Z,100972.28
2022-10-13T01:00:53.144Z,101027.53
2022-10-13T01:03:21.256Z,101023.91
2022-10-13T01:05:48.682Z,100970.34
2022-10-13T01:08:16.404Z,101032.69
2022-10-13T01:11:07.524Z,101032.84
2022-10-13T01:13:58.352Z,101014.94
2022-10-13T01:16:35.768Z,101020.28
2022-10-13T01:19:39.825Z,101037.34
2022-10-13T01:22:25.184Z,101014.69
2022-10-13T01:25:10.036Z,101033.75
2022-10-13T01:27:59.812Z,101029.41
2022-10-13T01:30:26.539Z,101011.44
2022-10-13T01:33:09.682Z,101022.44
2022-10-13T01:35:48.373Z,101019.81
2022-10-13T01:38:33.568Z,101019.75
2022-10-13T01:41:12.342Z,101016.44
2022-10-13T01:43:58.783Z,100960.47
2022-10-13T01:46:30.894Z,100998.47
2022-10-13T01:49:01.996Z,100988.22
2022-10-13T01:51:31.395Z,101017.56
2022-10-13T01:53:58.065Z,101013.06
2022-10-13T01:56:24.686Z,101005.41
2022-10-13T01:58:53.969Z,100951.94
2022-10-13T02:01:39.656Z,101015.78
2022-10-13T02:04:06.219Z,101014.94
2022-10-13T02:06:51.177Z,101014.31
2022-10-13T02:09:46.044Z,100985.13
2022-10-13T02:12:21.887Z,100967.78
2022-10-13T02:14:50.944Z,100981.31
2022-10-13T02:17:18.000Z,100992.69
2022-10-13T02:19:45.165Z,100968.38
2022-10-13T02:22:14.940Z,100966.88
2022-10-13T02:24:41.979Z,100991.88
2022-10-13T02:27:09.227Z,100978.16
2022-10-13T02:29:49.637Z,100974.47
2022-10-13T02:32:16.761Z,100972.91
2022-10-13T02:34:43.676Z,100940.88
2022-10-13T02:37:11.212Z,100959.16
2022-10-13T02:39:37.895Z,100974.75
2022-10-13T02:42:04.932Z,100974.69
2022-10-13T02:44:31.959Z,100982.50
2022-10-13T02:46:58.704Z,100991.19
2022-10-13T02:49:25.371Z,100955.75
2022-10-13T02:51:53.287Z,100986.94
2022-10-13T02:54:20.051Z,100988.94
2022-10-13T02:56:46.704Z,100980.47
2022-10-13T02:59:13.476Z,100972.75
2022-10-13T03:01:42.216Z,100951.09
2022-10-13T03:04:09.233Z,100998.66
2022-10-13T03:06:35.929Z,100996.09
2022-10-13T03:09:02.936Z,100944.28
2022-10-13T03:11:29.680Z,100907.84
2022-10-13T03:13:56.296Z,100978.94
2022-10-13T03:16:22.996Z,100947.88
2022-10-13T03:18:49.654Z,100944.69
2022-10-13T03:21:16.269Z,100950.78
2022-10-13T03:23:42.952Z,100954.22
2022-10-13T03:26:10.100Z,100913.47
2022-10-13T03:28:36.753Z,100982.56
2022-10-13T03:31:08.893Z,101012.06
2022-10-13T03:33:35.564Z,101011.19
2022-10-13T03:36:05.309Z,101006.78
2022-10-13T03:38:34.339Z,101002.41
2022-10-13T03:41:08.331Z,101003.16
2022-10-13T03:43:35.515Z,100999.66
2022-10-13T03:46:04.564Z,100985.84
2022-10-13T03:48:31.759Z,100998.72
2022-10-13T03:50:58.760Z,101007.41
2022-10-13T03:53:26.251Z,100997.88
2022-10-13T03:55:56.329Z,100966.78
2022-10-13T03:58:24.604Z,100955.56
2022-10-13T04:00:52.153Z,100932.09
2022-10-13T04:03:18.781Z,100932.25
2022-10-13T04:05:46.323Z,100988.56
2022-10-13T04:08:13.562Z,100966.06
2022-10-13T04:10:40.968Z,100978.91
2022-10-13T04:13:08.326Z,100997.06
2022-10-13T04:15:39.073Z,100941.59
2022-10-13T04:18:07.513Z,100987.28
2022-10-13T04:20:39.714Z,100991.50
2022-10-13T04:23:07.330Z,100989.72
2022-10-13T04:25:38.987Z,100994.91
2022-10-13T04:28:07.127Z,100993.25
2022-10-13T04:30:35.070Z,100965.59
2022-10-13T04:33:01.789Z,100995.09
2022-10-13T04:35:28.491Z,100987.28
2022-10-13T04:37:57.460Z,100932.78
2022-10-13T04:40:25.549Z,100993.44
2022-10-13T04:42:52.451Z,100964.06
2022-10-13T04:45:19.108Z,100935.56
2022-10-13T04:47:45.784Z,100977.09
2022-10-13T04:50:12.418Z,100915.84
2022-10-13T04:52:39.061Z,100964.22
2022-10-13T04:55:06.240Z,100964.22
2022-10-13T04:57:32.967Z,100975.59
2022-10-13T04:59:59.568Z,100970.25
2022-10-13T05:02:26.165Z,100978.06
2022-10-13T05:04:52.812Z,100926.94
2022-10-13T05:07:19.454Z,100958.94
2022-10-13T05:09:46.464Z,100978.81
2022-10-13T05:12:13.144Z,100960.81
2022-10-13T05:14:39.723Z,100980.56
2022-10-13T05:17:06.330Z,100928.81
2022-10-13T05:19:33.034Z,100964.09
2022-10-13T05:21:59.667Z,100972.84
2022-10-13T05:24:36.439Z,100978.06
2022-10-13T05:27:11.046Z,100987.56
2022-10-13T05:29:38.448Z,100985.88
2022-10-13T05:32:05.700Z,100986.75
2022-10-13T05:34:33.342Z,100991.19
2022-10-13T05:37:00.811Z,100983.41
2022-10-13T05:39:27.649Z,100983.31
2022-10-13T05:41:54.313Z,100920.13
2022-10-13T05:44:21.803Z,100975.75
2022-10-13T05:46:48.494Z,100991.16
2022-10-13T05:49:15.657Z,100975.59
2022-10-13T05:51:47.138Z,100984.03
2022-10-13T05:54:16.083Z,100996.88
2022-10-13T05:56:54.199Z,100990.03
2022-10-13T05:59:26.801Z,100989.03
2022-10-13T06:01:54.575Z,101002.75
2022-10-13T06:04:25.798Z,101003.50
2022-10-13T06:06:52.734Z,101002.31
2022-10-13T06:09:19.875Z,101008.31
2022-10-13T06:11:46.489Z,100985.34
2022-10-13T06:14:13.143Z,100980.94
2022-10-13T06:16:41.077Z,100987.97
2022-10-13T06:19:07.663Z,101011.09
2022-10-13T06:21:35.670Z,101010.94
2022-10-13T06:24:02.666Z,101018.69
2022-10-13T06:26:29.248Z,100995.91
2022-10-13T06:28:59.579Z,101007.22
2022-10-13T06:31:26.532Z,101004.22
2022-10-13T06:33:53.199Z,101023.97
2022-10-13T06:36:19.920Z,100999.56
2022-10-13T06:38:47.049Z,101013.19
2022-10-13T06:41:14.394Z,101000.97
2022-10-13T06:43:41.322Z,100980.84
2022-10-13T06:46:08.506Z,101012.94
2022-10-13T06:48:35.436Z,100971.06
2022-10-13T06:51:06.786Z,101011.97
2022-10-13T06:53:33.961Z,101007.28
2022-10-13T06:56:01.918Z,101020.09
2022-10-13T06:58:28.891Z,101031.91
2022-10-13T07:00:55.838Z,101032.09
2022-10-13T07:03:24.011Z,101002.13
2022-10-13T07:05:50.663Z,101001.56
2022-10-13T07:08:17.628Z,101008.66
2022-10-13T07:10:44.234Z,101013.94
2022-10-13T07:13:10.915Z,101002.78
2022-10-13T07:15:39.395Z,100994.72
2022-10-13T07:18:06.727Z,101006.91
2022-10-13T07:20:34.011Z,101016.31
2022-10-13T07:23:00.708Z,100988.34
2022-10-13T07:25:27.587Z,101011.09
2022-10-13T07:27:54.176Z,101005.22
2022-10-13T07:30:20.865Z,101010.84
2022-10-13T07:32:47.891Z,101003.25
2022-10-13T07:35:14.526Z,100994.78
2022-10-13T07:37:41.291Z,101009.03
2022-10-13T07:40:08.873Z,101003.91
2022-10-13T07:42:35.984Z,101011.56
2022-10-13T07:45:03.088Z,100994.13
2022-10-13T07:47:29.868Z,101000.78
2022-10-13T07:49:56.512Z,101007.41
2022-10-13T07:52:23.446Z,101001.53
2022-10-13T07:54:50.851Z,100994.66
2022-10-13T07:57:17.988Z,100953.13
2022-10-13T07:59:44.672Z,100991.81
2022-10-13T08:02:11.420Z,100976.13
2022-10-13T08:04:38.386Z,101000.69
2022-10-13T08:07:06.205Z,100986.22
2022-10-13T08:09:33.263Z,101006.91
2022-10-13T08:12:00.818Z,101003.44
2022-10-13T08:14:29.020Z,100983.75
2022-10-13T08:16:56.346Z,100985.59
2022-10-13T08:19:26.296Z,100992.97
2022-10-13T08:21:58.134Z,100977.44
2022-10-13T08:24:26.789Z,100976.63
2022-10-13T08:26:53.685Z,100948.94
2022-10-13T08:29:23.056Z,100967.00
2022-10-13T08:31:51.663Z,100988.91
2022-10-13T08:34:18.687Z,100928.34
2022-10-13T08:36:45.448Z,100969.38
2022-10-13T08:39:12.866Z,100954.00
2022-10-13T08:41:45.887Z,100987.63
2022-10-13T08:47:44.343Z,100961.28
2022-10-13T08:50:15.198Z,100980.13
2022-10-13T08:52:49.866Z,100982.47
2022-10-13T08:55:23.166Z,100963.16
2022-10-13T08:57:50.038Z,100975.75
2022-10-13T09:00:17.388Z,100946.66
2022-10-13T09:02:45.031Z,100887.38
2022-10-13T09:05:27.555Z,100964.84
2022-10-13T09:07:56.780Z,100957.75
2022-10-13T09:10:23.454Z,100929.41
2022-10-13T09:12:51.582Z,100953.66
2022-10-13T09:15:18.544Z,100919.19
2022-10-13T09:17:45.764Z,100958.31
2022-10-13T09:20:25.218Z,100963.34
2022-10-13T09:23:04.368Z,100930.53
2022-10-13T09:25:47.183Z,100958.25
2022-10-13T09:28:19.849Z,100954.25
2022-10-13T09:30:47.957Z,100903.44
2022-10-13T09:33:19.260Z,100948.41
2022-10-13T09:35:48.756Z,100872.00
2022-10-13T09:38:20.072Z,100958.78
2022-10-13T09:41:09.679Z,100871.63
2022-10-13T09:43:42.281Z,100948.66
2022-10-13T09:46:28.193Z,100937.31
2022-10-13T09:48:59.341Z,100941.16
2022-10-13T09:51:45.321Z,100954.78
2022-10-13T09:54:39.042Z,100957.16
2022-10-13T09:57:29.976Z,100939.94
2022-10-13T10:00:18.414Z,100942.88
2022-10-13T10:02:51.512Z,100946.13
2022-10-13T10:05:24.593Z,100939.09
2022-10-13T10:07:51.550Z,100918.50
2022-10-13T10:10:31.204Z,100938.28
2022-10-13T10:12:57.745Z,100926.66
2022-10-13T10:15:33.286Z,100915.63
2022-10-13T10:18:08.909Z,100912.69
2022-10-13T10:21:03.071Z,100930.78
2022-10-13T10:23:41.547Z,100905.22
2022-10-13T10:26:23.709Z,100922.66
2022-10-13T10:29:14.887Z,100913.13
2022-10-13T10:31:57.979Z,100909.22
2022-10-13T10:34:37.481Z,100911.53
2022-10-13T10:37:21.180Z,100895.88
2022-10-13T10:40:08.808Z,100892.34
2022-10-13T10:42:48.417Z,100890.53
2022-10-13T10:45:22.149Z,100888.72
2022-10-13T10:47:54.055Z,100864.03
2022-10-13T10:50:22.045Z,100852.22
2022-10-13T10:52:48.604Z,100879.16
2022-10-13T10:55:29.822Z,100849.34
2022-10-13T10:58:30.294Z,100874.31
2022-10-13T11:01:06.031Z,100870.19
2022-10-13T11:03:40.854Z,100851.28
2022-10-13T11:06:37.593Z,100849.66
2022-10-13T11:09:06.036Z,100837.16
2022-10-13T11:11:38.988Z,100850.88
2022-10-13T11:14:05.534Z,100860.50
2022-10-13T11:16:40.757Z,100846.00
2022-10-13T11:19:33.287Z,100853.19
2022-10-13T11:21:59.914Z,100850.66
2022-10-13T11:24:41.840Z,100850.75
2022-10-13T11:27:08.428Z,100845.19
2022-10-13T11:29:47.202Z,100838.94
2022-10-13T11:32:46.234Z,100843.56
2022-10-13T11:35:12.776Z,100833.28
2022-10-13T11:37:42.089Z,100831.72
2022-10-13T11:40:33.750Z,100821.16
2022-10-13T11:43:33.769Z,100811.97
2022-10-13T11:46:12.517Z,100816.56
2022-10-13T11:48:50.094Z,100806.81
2022-10-13T11:51:38.685Z,100805.72
2022-10-13T11:54:36.592Z,100795.16
2022-10-13T11:57:04.759Z,100738.50
2022-10-13T11:59:35.028Z,100772.81
2022-10-13T12:02:10.724Z,100790.53
2022-10-13T12:04:41.546Z,100784.53
2022-10-13T12:07:13.329Z,100781.13
2022-10-13T12:09:54.490Z,100776.78
2022-10-13T12:12:22.826Z,100776.25
2022-10-13T12:14:53.409Z,100775.47
2022-10-13T12:17:26.681Z,100779.31
2022-10-13T12:19:56.278Z,100774.84
2022-10-13T12:22:24.024Z,100771.66
2022-10-13T12:25:02.565Z,100769.13
2022-10-13T12:27:34.109Z,100760.34
2022-10-13T12:30:02.019Z,100769.28
2022-10-13T12:32:33.596Z,100771.97
2022-10-13T12:35:23.872Z,100761.59
2022-10-13T12:37:52.241Z,100761.44
2022-10-13T12:40:19.377Z,100767.06
2022-10-13T12:42:47.132Z,100758.28
2022-10-13T12:45:23.323Z,100753.88
2022-10-13T12:47:52.579Z,100764.09
2022-10-13T12:50:25.367Z,100759.69
2022-10-13T12:53:09.935Z,100762.13
2022-10-13T12:55:50.672Z,100760.63
2022-10-13T12:58:24.595Z,100764.00
2022-10-13T13:01:12.694Z,100765.97
2022-10-13T13:06:34.976Z,100745.97
2022-10-13T13:09:19.823Z,100755.72
2022-10-13T13:11:47.236Z,100752.06
2022-10-13T13:14:37.445Z,100754.41
2022-10-13T13:17:08.504Z,100724.59
2022-10-13T13:19:36.403Z,100748.00
2022-10-13T13:22:05.095Z,100720.56
2022-10-13T13:24:39.979Z,100741.91
2022-10-13T13:27:17.683Z,100722.66
2022-10-13T13:29:45.738Z,100740.09
2022-10-13T13:32:14.500Z,100728.22
2022-10-13T13:34:41.423Z,100726.41
2022-10-13T13:37:26.469Z,100736.78
2022-10-13T13:39:53.319Z,100711.56
2022-10-13T13:42:20.008Z,100727.16
2022-10-13T13:44:46.742Z,100703.84
2022-10-13T13:47:17.317Z,100729.69
2022-10-13T13:49:44.268Z,100728.25
2022-10-13T13:52:10.905Z,100717.72
2022-10-13T13:54:37.505Z,100675.59
2022-10-13T13:57:04.581Z,100716.00
2022-10-13T13:59:31.653Z,100671.81
2022-10-13T14:01:58.369Z,100719.53
2022-10-13T14:04:25.034Z,100681.28
2022-10-13T14:06:52.930Z,100702.06
2022-10-13T14:09:19.566Z,100705.06
2022-10-13T14:11:46.199Z,100711.50
2022-10-13T14:14:13.101Z,100625.63
2022-10-13T14:16:41.512Z,100693.19
2022-10-13T14:19:10.190Z,100698.72
2022-10-13T14:21:37.240Z,100696.16
2022-10-13T14:24:04.651Z,100724.09
2022-10-13T14:26:31.568Z,100688.91
2022-10-13T14:28:58.477Z,100702.81
2022-10-13T14:31:25.180Z,100688.63
2022-10-13T14:33:54.310Z,100703.22
2022-10-13T14:36:21.260Z,100708.72
2022-10-13T14:38:47.870Z,100681.78
2022-10-13T14:41:17.062Z,100687.00
2022-10-13T14:43:44.235Z,100674.94
2022-10-13T14:46:10.858Z,100686.31
2022-10-13T14:48:37.775Z,100706.91
2022-10-13T14:51:06.304Z,100699.22
2022-10-13T14:53:34.728Z,100700.66
2022-10-13T14:56:01.966Z,100652.34
2022-10-13T14:58:28.699Z,100676.22
2022-10-13T15:00:55.684Z,100673.38
2022-10-13T15:03:27.747Z,100627.25
2022-10-13T15:05:54.536Z,100688.88
2022-10-13T15:08:21.171Z,100694.88
2022-10-13T15:10:47.828Z,100695.50
2022-10-13T15:13:14.460Z,100677.28
2022-10-13T15:15:47.934Z,100637.16
2022-10-13T15:18:14.605Z,100692.06
2022-10-13T15:20:46.369Z,100704.03
2022-10-13T15:23:14.587Z,100686.25
2022-10-13T15:25:49.996Z,100674.50
2022-10-13T15:28:16.944Z,100706.47
2022-10-13T15:30:43.680Z,100704.69
2022-10-13T15:33:10.306Z,100682.31
2022-10-13T15:35:36.968Z,100700.13
2022-10-13T15:38:03.555Z,100685.28
2022-10-13T15:40:33.553Z,100656.38
2022-10-13T15:43:00.824Z,100698.72
2022-10-13T15:45:27.669Z,100629.16
2022-10-13T15:47:54.343Z,100700.53
2022-10-13T15:50:20.987Z,100699.00
2022-10-13T15:52:47.639Z,100630.97
2022-10-13T15:55:14.280Z,100690.38
2022-10-13T15:57:40.981Z,100714.47
2022-10-13T16:00:09.622Z,100614.63
2022-10-13T16:02:36.355Z,100657.19
2022-10-13T16:05:05.368Z,100684.88
2022-10-13T16:07:32.477Z,100697.34
2022-10-13T16:09:59.187Z,100667.88
2022-10-13T16:12:27.547Z,100704.28
2022-10-13T16:14:54.593Z,100604.84
2022-10-13T16:17:21.286Z,100665.75
2022-10-13T16:19:48.125Z,100698.84
2022-10-13T16:22:15.070Z,100690.66
2022-10-13T16:24:41.683Z,100685.28
2022-10-13T16:27:08.519Z,100688.56
2022-10-13T16:29:35.122Z,100672.84
2022-10-13T16:32:01.733Z,100704.78
2022-10-13T16:34:28.468Z,100693.22
2022-10-13T16:36:55.151Z,100698.25
2022-10-13T16:39:23.834Z,100678.72
2022-10-13T16:41:51.616Z,100708.22
2022-10-13T16:44:18.251Z,100701.84
2022-10-13T16:46:45.275Z,100698.16
2022-10-13T16:49:12.755Z,100713.94
2022-10-13T16:51:39.402Z,100664.69
2022-10-13T16:54:06.237Z,100699.50
2022-10-13T16:56:33.494Z,100709.00
2022-10-13T16:59:02.775Z,100666.31
2022-10-13T17:01:30.925Z,100600.59
2022-10-13T17:03:57.972Z,100661.59
2022-10-13T17:06:27.483Z,100702.13
2022-10-13T17:08:54.973Z,100710.47
2022-10-13T17:11:24.796Z,100710.69
2022-10-13T17:13:51.727Z,100719.53
2022-10-13T17:16:20.286Z,100689.66
2022-10-13T17:18:46.953Z,100651.16
2022-10-13T17:21:15.785Z,100708.25
2022-10-13T17:23:48.098Z,100709.28
2022-10-13T17:26:16.428Z,100707.97
2022-10-13T17:28:43.163Z,100624.78
2022-10-13T17:31:12.671Z,100709.09
2022-10-13T17:33:40.682Z,100713.72
2022-10-13T17:36:15.373Z,100706.09
2022-10-13T17:38:43.179Z,100707.22
2022-10-13T17:41:11.172Z,100694.66
2022-10-13T17:43:39.235Z,100685.28
2022-10-13T17:46:34.608Z,100711.88
2022-10-13T17:48:56.382Z,100711.09
2022-10-13T17:51:23.443Z,100711.16
2022-10-13T17:53:51.579Z,100703.81
2022-10-13T17:56:21.584Z,100719.78
2022-10-13T17:58:50.066Z,100672.66
2022-10-13T18:01:19.871Z,100616.16
2022-10-13T18:03:47.423Z,100707.91
2022-10-13T18:06:14.666Z,100712.31
2022-10-13T18:08:41.624Z,100702.19
2022-10-13T18:11:10.483Z,100714.16
2022-10-13T18:13:37.521Z,100686.91
2022-10-13T18:16:09.911Z,100718.03
2022-10-13T18:18:37.692Z,100701.97
2022-10-13T18:21:06.034Z,100703.75
2022-10-13T18:23:34.775Z,100673.88
2022-10-13T18:26:13.643Z,100711.03
2022-10-13T18:28:43.349Z,100714.53
2022-10-13T18:31:18.849Z,100711.88
2022-10-13T18:33:46.092Z,100711.13
2022-10-13T18:39:13.500Z,100694.78
2022-10-13T18:41:41.116Z,100688.59
2022-10-13T18:44:08.572Z,100690.41
2022-10-13T18:46:37.558Z,100704.19
2022-10-13T18:49:05.660Z,100687.81
2022-10-13T18:51:36.118Z,100666.00
2022-10-13T18:54:04.269Z,100704.44
2022-10-13T18:56:32.404Z,100701.09
2022-10-13T18:59:01.687Z,100702.53
2022-10-13T19:01:30.855Z,100684.78
2022-10-13T19:03:58.389Z,100700.03
2022-10-13T19:06:27.271Z,100690.31
2022-10-13T19:08:56.811Z,100699.47
2022-10-13T19:11:24.881Z,100701.72
2022-10-13T19:13:52.506Z,100694.50
2022-10-13T19:16:21.876Z,100693.44
2022-10-13T19:18:49.345Z,100674.69
2022-10-13T19:21:17.396Z,100572.78
2022-10-13T19:23:44.351Z,100584.56
2022-10-13T19:26:26.215Z,100696.00
2022-10-13T19:28:58.474Z,100699.13
2022-10-13T19:31:27.202Z,100697.88
2022-10-13T19:33:54.026Z,100709.38
2022-10-13T19:36:33.666Z,100707.88
2022-10-13T19:39:02.179Z,100703.38
2022-10-13T19:41:31.172Z,100685.72
2022-10-13T19:43:58.589Z,100687.28
2022-10-13T19:46:25.236Z,100688.78
2022-10-13T19:48:51.836Z,100661.53
2022-10-13T19:51:18.629Z,100675.41
2022-10-13T19:53:45.525Z,100688.94
2022-10-13T19:56:23.819Z,100674.25
2022-10-13T19:58:52.002Z,100651.41
2022-10-13T20:01:19.443Z,100708.84
2022-10-13T20:03:46.853Z,100700.34
2022-10-13T20:06:13.924Z,100641.22
2022-10-13T20:08:40.753Z,100662.16
2022-10-13T20:11:24.114Z,100706.13
2022-10-13T20:13:52.264Z,100693.63
2022-10-13T20:16:23.434Z,100680.84
2022-10-13T20:18:57.644Z,100683.19
2022-10-13T20:21:25.940Z,100688.28
2022-10-13T20:23:53.027Z,100691.97
2022-10-13T20:26:20.556Z,100694.59
2022-10-13T20:28:48.747Z,100663.72
2022-10-13T20:31:18.107Z,100684.16
2022-10-13T20:33:45.000Z,100689.84
2022-10-13T20:36:14.353Z,100688.91
2022-10-13T20:38:41.412Z,100686.50
2022-10-13T20:41:15.689Z,100688.34
2022-10-13T20:43:42.525Z,100649.81
2022-10-13T20:46:09.608Z,100683.44
2022-10-13T20:48:58.156Z,100684.69
2022-10-13T20:51:25.966Z,100688.44
2022-10-13T20:53:52.605Z,100614.03
2022-10-13T20:56:21.913Z,100604.69
2022-10-13T20:58:49.380Z,100676.41
2022-10-13T21:01:19.362Z,100682.25
2022-10-13T21:03:46.588Z,100683.38
2022-10-13T21:06:14.711Z,100684.63
2022-10-13T21:08:45.235Z,100685.88
2022-10-13T21:11:14.425Z,100688.59
2022-10-13T21:13:42.544Z,100677.56
2022-10-13T21:16:11.880Z,100676.09
2022-10-13T21:18:38.581Z,100658.41
2022-10-13T21:21:10.187Z,100671.63
2022-10-13T21:23:37.829Z,100677.34
2022-10-13T21:26:06.527Z,100649.19
2022-10-13T21:28:35.796Z,100657.41
2022-10-13T21:31:03.557Z,100672.03
2022-10-13T21:33:30.379Z,100655.47
2022-10-13T21:35:57.360Z,100660.13
2022-10-13T21:38:24.286Z,100643.25
2022-10-13T21:40:54.022Z,100669.28
2022-10-13T21:43:20.708Z,100674.41
2022-10-13T21:45:47.483Z,100658.09
2022-10-13T21:48:14.094Z,100630.13
2022-10-13T21:50:40.821Z,100657.06
2022-10-13T21:53:07.462Z,100659.75
2022-10-13T21:55:34.129Z,100659.78
2022-10-13T21:58:05.337Z,100660.94
2022-10-13T22:00:32.856Z,100648.09
2022-10-13T22:02:59.550Z,100650.94
2022-10-13T22:05:26.231Z,100626.94
2022-10-13T22:07:53.563Z,100662.16
2022-10-13T22:10:20.272Z,100649.41
2022-10-13T22:12:46.911Z,100632.91
2022-10-13T22:15:13.603Z,100608.72
2022-10-13T22:17:40.197Z,100643.06
2022-10-13T22:20:07.104Z,100662.56
2022-10-13T22:22:33.780Z,100651.81
2022-10-13T22:25:00.507Z,100623.00
2022-10-13T22:27:27.097Z,100636.22
2022-10-13T22:29:53.824Z,100661.00
2022-10-13T22:32:20.440Z,100672.97
2022-10-13T22:34:47.094Z,100648.84
2022-10-13T22:37:13.693Z,100668.50
2022-10-13T22:39:40.301Z,100617.06
2022-10-13T22:42:06.969Z,100646.94
2022-10-13T22:44:33.562Z,100647.03
2022-10-13T22:47:00.151Z,100652.00
2022-10-13T22:49:26.811Z,100652.53
2022-10-13T22:51:53.428Z,100640.94
2022-10-13T22:54:20.012Z,100590.59
2022-10-13T22:56:46.604Z,100653.66
2022-10-13T22:59:13.991Z,100650.16
2022-10-13T23:01:40.649Z,100642.16
2022-10-13T23:04:07.245Z,100633.75
2022-10-13T23:06:35.579Z,100653.78
2022-10-13T23:09:05.026Z,100654.00
2022-10-13T23:11:31.674Z,100607.78
2022-10-13T23:13:58.299Z,100640.22
2022-10-13T23:16:26.419Z,100656.34
2022-10-13T23:18:53.551Z,100635.16
2022-10-13T23:21:22.340Z,100644.41
2022-10-13T23:23:54.883Z,100557.47
2022-10-13T23:26:21.482Z,100628.31
2022-10-13T23:28:48.141Z,100624.41
2022-10-13T23:31:16.794Z,100643.19
2022-10-13T23:33:43.956Z,100637.06
2022-10-13T23:36:15.887Z,100627.09
2022-10-13T23:38:42.783Z,100607.81
2022-10-13T23:41:12.386Z,100653.09
2022-10-13T23:43:40.239Z,100586.09
2022-10-13T23:46:08.002Z,100629.47
2022-10-13T23:48:34.584Z,100644.34
2022-10-13T23:51:24.852Z,100645.16
2022-10-13T23:53:52.351Z,100631.56
2022-10-13T23:56:19.483Z,100649.84
2022-10-13T23:58:46.345Z,100640.66
